sensor_id;sensor_type;location;lat;lon;timestamp;P1;durP1;ratioP1;P2;durP2;ratioP2
10440;SDS011;5268;49.346;9.522;2024-01-07T04:05:51;18.08;;;12.85;;
10440;SDS011;5268;49.346;9.522;2024-01-07T04:10:53;10.88;;;8.55;;
10440;SDS011;5268;49.346;9.522;2024-01-07T04:15:55;9.88;;;8.10;;
10440;SDS011;5268;49.346;9.522;2024-01-07T04:20:58;10.00;;;7.50;;
10440;SDS011;5268;49.346;9.522;2024-01-07T04:26:00;10.57;;;7.88;;
10440;SDS011;5268;49.346;9.522;2024-01-07T04:31:02;9.07;;;7.72;;
10440;SDS011;5268;49.346;9.522;2024-01-07T04:36:06;10.40;;;8.55;;
10440;SDS011;5268;49.346;9.522;2024-01-07T04:41:09;10.05;;;9.00;;
10440;SDS011;5268;49.346;9.522;2024-01-07T04:46:11;10.13;;;8.75;;
10440;SDS011;5268;49.346;9.522;2024-01-07T04:51:15;8.35;;;7.47;;
10440;SDS011;5268;49.346;9.522;2024-01-07T04:56:17;8.95;;;6.78;;
10440;SDS011;5268;49.346;9.522;2024-01-07T05:01:19;9.10;;;6.75;;
10440;SDS011;5268;49.346;9.522;2024-01-07T05:06:23;8.45;;;6.78;;
10440;SDS011;5268;49.346;9.522;2024-01-07T05:11:25;8.20;;;6.93;;
10440;SDS011;5268;49.346;9.522;2024-01-07T05:16:27;8.15;;;6.28;;
10440;SDS011;5268;49.346;9.522;2024-01-07T05:21:30;9.48;;;6.85;;
10440;SDS011;5268;49.346;9.522;2024-01-07T05:26:37;9.23;;;6.47;;
10440;SDS011;5268;49.346;9.522;2024-01-07T05:31:40;8.68;;;6.80;;
10440;SDS011;5268;49.346;9.522;2024-01-07T05:36:44;7.30;;;6.50;;
10440;SDS011;5268;49.346;9.522;2024-01-07T05:41:46;10.57;;;6.80;;
10440;SDS011;5268;49.346;9.522;2024-01-07T05:46:48;8.65;;;6.63;;
10440;SDS011;5268;49.346;9.522;2024-01-07T05:51:51;8.95;;;7.18;;
10440;SDS011;5268;49.346;9.522;2024-01-07T05:56:53;8.13;;;7.03;;
10440;SDS011;5268;49.346;9.522;2024-01-07T06:01:57;8.85;;;6.93;;
10440;SDS011;5268;49.346;9.522;2024-01-07T06:07:02;6.38;;;5.43;;
10440;SDS011;5268;49.346;9.522;2024-01-07T06:12:04;7.45;;;5.57;;
10440;SDS011;5268;49.346;9.522;2024-01-07T06:17:06;6.60;;;5.32;;
10440;SDS011;5268;49.346;9.522;2024-01-07T06:22:09;5.57;;;4.97;;
10440;SDS011;5268;49.346;9.522;2024-01-07T06:27:11;6.47;;;4.80;;
10440;SDS011;5268;49.346;9.522;2024-01-07T06:32:13;6.18;;;4.78;;
10440;SDS011;5268;49.346;9.522;2024-01-07T06:37:17;7.13;;;5.55;;
10440;SDS011;5268;49.346;9.522;2024-01-07T06:42:19;8.60;;;6.40;;
10440;SDS011;5268;49.346;9.522;2024-01-07T06:47:21;7.82;;;5.93;;
10440;SDS011;5268;49.346;9.522;2024-01-07T06:52:25;7.80;;;5.38;;
10440;SDS011;5268;49.346;9.522;2024-01-07T06:57:27;7.07;;;5.80;;
10440;SDS011;5268;49.346;9.522;2024-01-07T07:02:29;6.75;;;5.45;;
10440;SDS011;5268;49.346;9.522;2024-01-07T07:07:32;6.47;;;5.15;;
10440;SDS011;5268;49.346;9.522;2024-01-07T07:12:34;5.13;;;4.45;;
10440;SDS011;5268;49.346;9.522;2024-01-07T07:17:36;8.30;;;6.43;;
10440;SDS011;5268;49.346;9.522;2024-01-07T07:22:40;7.05;;;5.82;;
10440;SDS011;5268;49.346;9.522;2024-01-07T07:27:42;6.00;;;5.32;;
10440;SDS011;5268;49.346;9.522;2024-01-07T07:32:44;6.15;;;5.20;;
10440;SDS011;5268;49.346;9.522;2024-01-07T07:37:48;6.28;;;4.75;;
10440;SDS011;5268;49.346;9.522;2024-01-07T07:42:50;6.50;;;5.55;;
10440;SDS011;5268;49.346;9.522;2024-01-07T07:47:52;6.20;;;5.15;;
10440;SDS011;5268;49.346;9.522;2024-01-07T07:52:56;6.63;;;5.15;;
10440;SDS011;5268;49.346;9.522;2024-01-07T07:57:58;5.95;;;5.18;;
10440;SDS011;5268;49.346;9.522;2024-01-07T08:03:00;9.00;;;5.70;;
10440;SDS011;5268;49.346;9.522;2024-01-07T08:08:03;6.40;;;5.18;;
10440;SDS011;5268;49.346;9.522;2024-01-07T08:13:06;6.32;;;4.72;;
10440;SDS011;5268;49.346;9.522;2024-01-07T08:18:09;5.10;;;4.38;;
10440;SDS011;5268;49.346;9.522;2024-01-07T08:23:12;5.75;;;4.70;;
10440;SDS011;5268;49.346;9.522;2024-01-07T08:28:14;4.93;;;3.95;;
10440;SDS011;5268;49.346;9.522;2024-01-07T08:33:16;4.55;;;3.42;;
10440;SDS011;5268;49.346;9.522;2024-01-07T08:38:20;3.60;;;3.00;;
10440;SDS011;5268;49.346;9.522;2024-01-07T08:43:22;4.45;;;3.33;;
10440;SDS011;5268;49.346;9.522;2024-01-07T08:48:24;4.18;;;3.28;;
10440;SDS011;5268;49.346;9.522;2024-01-07T08:53:27;5.05;;;3.92;;
10440;SDS011;5268;49.346;9.522;2024-01-07T08:58:29;4.90;;;4.35;;
10440;SDS011;5268;49.346;9.522;2024-01-07T09:03:31;5.00;;;4.05;;
10440;SDS011;5268;49.346;9.522;2024-01-07T09:08:35;5.20;;;3.67;;
10440;SDS011;5268;49.346;9.522;2024-01-07T09:13:37;4.55;;;3.58;;
10440;SDS011;5268;49.346;9.522;2024-01-07T09:18:39;4.40;;;3.70;;
10440;SDS011;5268;49.346;9.522;2024-01-07T09:23:42;4.72;;;3.85;;
10440;SDS011;5268;49.346;9.522;2024-01-07T09:28:45;4.97;;;3.90;;
10440;SDS011;5268;49.346;9.522;2024-01-07T09:33:47;4.82;;;4.15;;
10440;SDS011;5268;49.346;9.522;2024-01-07T09:38:51;4.22;;;3.70;;
10440;SDS011;5268;49.346;9.522;2024-01-07T09:43:54;4.93;;;4.07;;
10440;SDS011;5268;49.346;9.522;2024-01-07T09:48:57;5.22;;;4.22;;
10440;SDS011;5268;49.346;9.522;2024-01-07T09:54:02;4.57;;;3.70;;
10440;SDS011;5268;49.346;9.522;2024-01-07T09:59:04;4.30;;;3.80;;
10440;SDS011;5268;49.346;9.522;2024-01-07T10:04:08;4.50;;;3.90;;
10440;SDS011;5268;49.346;9.522;2024-01-07T10:09:12;4.50;;;3.92;;
10440;SDS011;5268;49.346;9.522;2024-01-07T10:14:14;5.15;;;4.20;;
10440;SDS011;5268;49.346;9.522;2024-01-07T10:19:20;4.80;;;4.07;;
10440;SDS011;5268;49.346;9.522;2024-01-07T10:24:24;4.65;;;4.13;;
10440;SDS011;5268;49.346;9.522;2024-01-07T10:29:26;5.00;;;4.50;;
10440;SDS011;5268;49.346;9.522;2024-01-07T10:34:29;5.50;;;4.38;;
10440;SDS011;5268;49.346;9.522;2024-01-07T10:39:34;5.90;;;4.40;;
10440;SDS011;5268;49.346;9.522;2024-01-07T10:44:37;4.85;;;4.20;;
10440;SDS011;5268;49.346;9.522;2024-01-07T10:49:40;5.05;;;4.20;;
10440;SDS011;5268;49.346;9.522;2024-01-07T10:54:46;4.88;;;3.90;;
10440;SDS011;5268;49.346;9.522;2024-01-07T10:59:48;4.88;;;4.13;;
10440;SDS011;5268;49.346;9.522;2024-01-07T11:04:56;5.28;;;4.38;;
10440;SDS011;5268;49.346;9.522;2024-01-07T11:10:08;5.03;;;4.38;;
10440;SDS011;5268;49.346;9.522;2024-01-07T11:15:13;5.05;;;4.47;;
10440;SDS011;5268;49.346;9.522;2024-01-07T11:20:53;5.97;;;4.80;;
10440;SDS011;5268;49.346;9.522;2024-01-07T11:25:57;5.90;;;4.80;;
10440;SDS011;5268;49.346;9.522;2024-01-07T11:30:59;5.97;;;5.05;;
10440;SDS011;5268;49.346;9.522;2024-01-07T11:36:02;5.70;;;4.93;;
10440;SDS011;5268;49.346;9.522;2024-01-07T11:41:07;6.07;;;5.07;;
10440;SDS011;5268;49.346;9.522;2024-01-07T11:46:12;5.50;;;4.70;;
10440;SDS011;5268;49.346;9.522;2024-01-07T11:51:14;6.32;;;4.90;;
10440;SDS011;5268;49.346;9.522;2024-01-07T11:56:18;5.95;;;4.90;;
10440;SDS011;5268;49.346;9.522;2024-01-07T12:01:20;6.05;;;5.40;;
10440;SDS011;5268;49.346;9.522;2024-01-07T12:06:22;6.65;;;5.20;;
10440;SDS011;5268;49.346;9.522;2024-01-07T12:11:26;6.88;;;5.47;;
10440;SDS011;5268;49.346;9.522;2024-01-07T12:16:28;7.15;;;5.63;;
10440;SDS011;5268;49.346;9.522;2024-01-07T12:21:31;6.35;;;5.32;;
10440;SDS011;5268;49.346;9.522;2024-01-07T12:26:35;6.82;;;5.47;;
10440;SDS011;5268;49.346;9.522;2024-01-07T12:31:37;7.45;;;6.72;;
10440;SDS011;5268;49.346;9.522;2024-01-07T12:36:40;6.70;;;6.00;;
10440;SDS011;5268;49.346;9.522;2024-01-07T12:41:43;6.45;;;5.65;;
10440;SDS011;5268;49.346;9.522;2024-01-07T12:46:47;6.40;;;5.28;;
10440;SDS011;5268;49.346;9.522;2024-01-07T12:51:51;6.88;;;5.47;;
10440;SDS011;5268;49.346;9.522;2024-01-07T12:56:55;6.00;;;5.05;;
10440;SDS011;5268;49.346;9.522;2024-01-07T13:01:57;6.40;;;4.22;;
10440;SDS011;5268;49.346;9.522;2024-01-07T13:06:59;5.85;;;4.75;;
10440;SDS011;5268;49.346;9.522;2024-01-07T13:12:03;5.55;;;4.97;;
10440;SDS011;5268;49.346;9.522;2024-01-07T13:17:05;6.47;;;5.20;;
10440;SDS011;5268;49.346;9.522;2024-01-07T13:22:08;6.63;;;4.90;;
10440;SDS011;5268;49.346;9.522;2024-01-07T13:27:12;5.40;;;4.50;;
10440;SDS011;5268;49.346;9.522;2024-01-07T13:32:14;5.70;;;4.68;;
10440;SDS011;5268;49.346;9.522;2024-01-07T13:37:18;6.63;;;5.18;;
10440;SDS011;5268;49.346;9.522;2024-01-07T13:42:21;5.90;;;4.80;;
10440;SDS011;5268;49.346;9.522;2024-01-07T13:47:24;6.72;;;4.75;;
10440;SDS011;5268;49.346;9.522;2024-01-07T13:52:26;6.13;;;4.50;;
10440;SDS011;5268;49.346;9.522;2024-01-07T13:57:31;5.97;;;4.60;;
10440;SDS011;5268;49.346;9.522;2024-01-07T14:02:33;5.80;;;4.40;;
10440;SDS011;5268;49.346;9.522;2024-01-07T14:07:37;5.68;;;4.07;;
10440;SDS011;5268;49.346;9.522;2024-01-07T14:12:40;4.80;;;3.55;;
10440;SDS011;5268;49.346;9.522;2024-01-07T14:17:42;4.72;;;3.40;;
10440;SDS011;5268;49.346;9.522;2024-01-07T14:22:44;4.60;;;3.22;;
10440;SDS011;5268;49.346;9.522;2024-01-07T14:27:48;4.82;;;3.80;;
10440;SDS011;5268;49.346;9.522;2024-01-07T14:32:50;4.85;;;3.40;;
10440;SDS011;5268;49.346;9.522;2024-01-07T14:37:52;4.90;;;3.85;;
10440;SDS011;5268;49.346;9.522;2024-01-07T14:42:55;6.35;;;4.28;;
10440;SDS011;5268;49.346;9.522;2024-01-07T14:47:58;5.53;;;3.72;;
10440;SDS011;5268;49.346;9.522;2024-01-07T14:53:00;7.15;;;4.50;;
10440;SDS011;5268;49.346;9.522;2024-01-07T14:58:04;4.97;;;3.60;;
10440;SDS011;5268;49.346;9.522;2024-01-07T15:03:06;6.38;;;4.20;;
10440;SDS011;5268;49.346;9.522;2024-01-07T15:08:08;4.43;;;3.30;;
10440;SDS011;5268;49.346;9.522;2024-01-07T15:13:14;5.18;;;3.65;;
10440;SDS011;5268;49.346;9.522;2024-01-07T15:18:16;5.25;;;3.70;;
10440;SDS011;5268;49.346;9.522;2024-01-07T15:23:18;4.70;;;3.53;;
10440;SDS011;5268;49.346;9.522;2024-01-07T15:28:21;5.45;;;3.83;;
10440;SDS011;5268;49.346;9.522;2024-01-07T15:33:23;5.43;;;3.42;;
10440;SDS011;5268;49.346;9.522;2024-01-07T15:38:26;4.95;;;3.33;;
10440;SDS011;5268;49.346;9.522;2024-01-07T15:43:29;4.68;;;3.28;;
10440;SDS011;5268;49.346;9.522;2024-01-07T15:48:31;5.18;;;3.50;;
10440;SDS011;5268;49.346;9.522;2024-01-07T15:53:34;4.65;;;3.58;;
10440;SDS011;5268;49.346;9.522;2024-01-07T15:58:38;5.35;;;3.90;;
10440;SDS011;5268;49.346;9.522;2024-01-07T16:03:39;5.68;;;3.90;;
10440;SDS011;5268;49.346;9.522;2024-01-07T16:08:41;5.63;;;3.85;;
10440;SDS011;5268;49.346;9.522;2024-01-07T16:13:45;5.07;;;3.47;;
10440;SDS011;5268;49.346;9.522;2024-01-07T16:18:47;6.20;;;3.58;;
10440;SDS011;5268;49.346;9.522;2024-01-07T16:23:50;5.03;;;3.45;;
10440;SDS011;5268;49.346;9.522;2024-01-07T16:28:53;5.82;;;3.72;;
10440;SDS011;5268;49.346;9.522;2024-01-07T16:33:56;4.53;;;3.42;;
10440;SDS011;5268;49.346;9.522;2024-01-07T16:38:57;4.95;;;3.20;;
10440;SDS011;5268;49.346;9.522;2024-01-07T16:44:03;5.20;;;3.20;;
10440;SDS011;5268;49.346;9.522;2024-01-07T16:49:08;4.47;;;3.20;;
10440;SDS011;5268;49.346;9.522;2024-01-07T16:54:10;4.20;;;3.50;;
10440;SDS011;5268;49.346;9.522;2024-01-07T16:59:14;6.10;;;3.58;;
10440;SDS011;5268;49.346;9.522;2024-01-07T17:04:16;4.32;;;3.42;;
10440;SDS011;5268;49.346;9.522;2024-01-07T17:09:20;4.68;;;3.30;;
10440;SDS011;5268;49.346;9.522;2024-01-07T17:14:25;3.47;;;3.00;;
10440;SDS011;5268;49.346;9.522;2024-01-07T17:19:27;3.40;;;2.90;;
10440;SDS011;5268;49.346;9.522;2024-01-07T17:24:29;3.90;;;3.03;;
10440;SDS011;5268;49.346;9.522;2024-01-07T17:29:34;5.22;;;3.72;;
10440;SDS011;5268;49.346;9.522;2024-01-07T17:34:36;4.85;;;2.90;;
10440;SDS011;5268;49.346;9.522;2024-01-07T17:39:38;4.45;;;3.30;;
10440;SDS011;5268;49.346;9.522;2024-01-07T17:44:42;3.33;;;2.78;;
10440;SDS011;5268;49.346;9.522;2024-01-07T17:49:44;3.10;;;2.53;;
10440;SDS011;5268;49.346;9.522;2024-01-07T17:54:46;3.00;;;2.70;;
10440;SDS011;5268;49.346;9.522;2024-01-07T17:59:49;3.05;;;2.60;;
10440;SDS011;5268;49.346;9.522;2024-01-07T18:04:52;4.15;;;2.70;;
10440;SDS011;5268;49.346;9.522;2024-01-07T18:09:54;4.00;;;2.47;;
10440;SDS011;5268;49.346;9.522;2024-01-07T18:14:57;2.88;;;2.20;;
10440;SDS011;5268;49.346;9.522;2024-01-07T18:19:59;3.47;;;2.20;;
10440;SDS011;5268;49.346;9.522;2024-01-07T18:25:01;2.38;;;2.10;;
10440;SDS011;5268;49.346;9.522;2024-01-07T18:30:08;2.65;;;1.88;;
10440;SDS011;5268;49.346;9.522;2024-01-07T18:35:11;2.25;;;2.03;;
10440;SDS011;5268;49.346;9.522;2024-01-07T18:40:13;2.40;;;1.90;;
10440;SDS011;5268;49.346;9.522;2024-01-07T18:45:17;2.40;;;1.92;;
10440;SDS011;5268;49.346;9.522;2024-01-07T18:50:19;2.53;;;1.97;;
10440;SDS011;5268;49.346;9.522;2024-01-07T18:55:21;1.80;;;1.60;;
10440;SDS011;5268;49.346;9.522;2024-01-07T19:00:24;2.92;;;1.88;;
10440;SDS011;5268;49.346;9.522;2024-01-07T19:05:27;2.53;;;1.97;;
10440;SDS011;5268;49.346;9.522;2024-01-07T19:10:29;2.20;;;2.00;;
10440;SDS011;5268;49.346;9.522;2024-01-07T19:15:33;1.70;;;1.60;;
10440;SDS011;5268;49.346;9.522;2024-01-07T19:20:36;2.50;;;2.00;;
10440;SDS011;5268;49.346;9.522;2024-01-07T19:25:38;2.50;;;2.00;;
10440;SDS011;5268;49.346;9.522;2024-01-07T19:30:41;2.37;;;1.90;;
10440;SDS011;5268;49.346;9.522;2024-01-07T19:35:45;2.13;;;1.70;;
10440;SDS011;5268;49.346;9.522;2024-01-07T19:40:47;2.10;;;1.87;;
10440;SDS011;5268;49.346;9.522;2024-01-07T19:45:50;2.80;;;2.27;;
10440;SDS011;5268;49.346;9.522;2024-01-07T19:50:52;2.27;;;2.00;;
10440;SDS011;5268;49.346;9.522;2024-01-07T19:55:54;2.27;;;1.97;;
10440;SDS011;5268;49.346;9.522;2024-01-07T20:00:59;2.40;;;1.83;;
10440;SDS011;5268;49.346;9.522;2024-01-07T20:06:01;3.23;;;2.33;;
10440;SDS011;5268;49.346;9.522;2024-01-07T20:11:04;2.30;;;1.80;;
10440;SDS011;5268;49.346;9.522;2024-01-07T20:16:07;2.53;;;1.93;;
10440;SDS011;5268;49.346;9.522;2024-01-07T20:21:17;2.07;;;1.60;;
10440;SDS011;5268;49.346;9.522;2024-01-07T20:26:21;2.00;;;1.80;;
10440;SDS011;5268;49.346;9.522;2024-01-07T20:31:24;2.00;;;1.77;;
10440;SDS011;5268;49.346;9.522;2024-01-07T20:36:29;2.73;;;1.30;;
10440;SDS011;5268;49.346;9.522;2024-01-07T20:41:31;2.00;;;1.80;;
10440;SDS011;5268;49.346;9.522;2024-01-07T20:46:35;2.10;;;1.50;;
10440;SDS011;5268;49.346;9.522;2024-01-07T20:51:39;1.83;;;1.57;;
10440;SDS011;5268;49.346;9.522;2024-01-07T20:56:41;3.13;;;1.90;;
10440;SDS011;5268;49.346;9.522;2024-01-07T21:01:44;1.97;;;1.67;;
10440;SDS011;5268;49.346;9.522;2024-01-07T21:06:47;1.90;;;1.53;;
10440;SDS011;5268;49.346;9.522;2024-01-07T21:11:50;2.50;;;2.10;;
10440;SDS011;5268;49.346;9.522;2024-01-07T21:16:54;2.87;;;2.20;;
10440;SDS011;5268;49.346;9.522;2024-01-07T21:21:56;3.33;;;2.70;;
10440;SDS011;5268;49.346;9.522;2024-01-07T21:26:58;2.73;;;1.93;;
10440;SDS011;5268;49.346;9.522;2024-01-07T21:32:02;2.50;;;1.80;;
10440;SDS011;5268;49.346;9.522;2024-01-07T21:37:04;2.20;;;1.80;;
10440;SDS011;5268;49.346;9.522;2024-01-07T21:42:06;2.33;;;2.07;;
10440;SDS011;5268;49.346;9.522;2024-01-07T21:47:09;2.38;;;2.13;;
10440;SDS011;5268;49.346;9.522;2024-01-07T21:52:11;2.90;;;2.15;;
10440;SDS011;5268;49.346;9.522;2024-01-07T21:57:13;2.40;;;2.00;;
10440;SDS011;5268;49.346;9.522;2024-01-07T22:02:17;2.20;;;2.00;;
10440;SDS011;5268;49.346;9.522;2024-01-07T22:07:19;2.80;;;2.07;;
10440;SDS011;5268;49.346;9.522;2024-01-07T22:12:21;3.30;;;2.30;;
10440;SDS011;5268;49.346;9.522;2024-01-07T22:17:24;2.50;;;2.23;;
10440;SDS011;5268;49.346;9.522;2024-01-07T22:22:26;2.40;;;2.00;;
10440;SDS011;5268;49.346;9.522;2024-01-07T22:27:28;2.90;;;2.60;;
10440;SDS011;5268;49.346;9.522;2024-01-07T22:32:35;2.20;;;1.80;;
10440;SDS011;5268;49.346;9.522;2024-01-07T22:37:36;2.40;;;2.20;;
10440;SDS011;5268;49.346;9.522;2024-01-07T22:42:38;2.30;;;2.10;;
10440;SDS011;5268;49.346;9.522;2024-01-07T22:47:42;2.95;;;2.20;;
10440;SDS011;5268;49.346;9.522;2024-01-07T22:52:44;2.47;;;2.10;;
